Terminal Aerodrome Forecast
Issued by NWS

Home | Current Version | Previous Version | Text Only | Print | Product List | Glossary On
Versions: 1 2 3 4 5 6 7 8 9 10 11 12 13 14 15 16 17
000
FTUS45 KGJT 270538
TAFTEX
TAF
KTEX 270538Z 2706/2806 27010KT 5SM -SHSN SCT008 OVC025
      TEMPO 2706/2709 2SM -SN BKN008 OVC020
     FM271000 VRB03KT P6SM SCT090 BKN200
     FM271400 33008KT P6SM VCSH BKN090
     FM280300 08005KT P6SM SCT090 BKN150=

USA.gov is the U.S. government's official web portal to all federal, state and local government web resources and services.